createdAt,value
2023-03-04T00:00:00.307Z,75.15
2023-03-04T00:00:12.858Z,75.30
2023-03-04T00:00:24.982Z,75.10
2023-03-04T00:00:36.946Z,74.88
2023-03-04T00:00:48.918Z,74.94
2023-03-04T00:01:00.939Z,74.56
2023-03-04T00:01:15.715Z,74.59
2023-03-04T00:01:27.735Z,74.71
2023-03-04T00:01:39.792Z,74.26
2023-03-04T00:01:51.879Z,74.63
2023-03-04T00:02:03.988Z,74.54
2023-03-04T00:02:16.042Z,73.86
2023-03-04T00:02:28.010Z,74.11
2023-03-04T00:02:39.979Z,74.87
2023-03-04T00:02:51.920Z,74.66
2023-03-04T00:03:03.897Z,75.01
2023-03-04T00:03:16.001Z,74.95
2023-03-04T00:03:28.039Z,75.35
2023-03-04T00:03:39.945Z,75.33
2023-03-04T00:03:51.878Z,74.89
2023-03-04T00:04:03.814Z,74.96
2023-03-04T00:04:16.492Z,75.18
2023-03-04T00:04:28.457Z,74.56
2023-03-04T00:04:40.434Z,74.59
2023-03-04T00:04:52.364Z,75.62
2023-03-04T00:05:04.940Z,75.57
2023-03-04T00:05:16.997Z,76.01
2023-03-04T00:05:30.806Z,76.28
2023-03-04T00:05:43.100Z,76.09
2023-03-04T00:05:55.007Z,76.87
2023-03-04T00:06:07.344Z,76.48
2023-03-04T00:06:19.236Z,77.34
2023-03-04T00:06:31.267Z,77.33
2023-03-04T00:06:43.223Z,76.66
2023-03-04T00:06:55.187Z,76.88
2023-03-04T00:07:07.306Z,76.93
2023-03-04T00:07:19.345Z,76.99
2023-03-04T00:07:31.362Z,76.22
2023-03-04T00:07:43.342Z,75.96
2023-03-04T00:07:55.261Z,75.96
2023-03-04T00:08:07.337Z,75.43
2023-03-04T00:08:19.350Z,75.00
2023-03-04T00:08:31.400Z,75.30
2023-03-04T00:08:43.427Z,75.33
2023-03-04T00:08:55.382Z,74.24
2023-03-04T00:09:07.300Z,74.45
2023-03-04T00:09:19.275Z,74.97
2023-03-04T00:09:31.242Z,74.96
2023-03-04T00:09:46.777Z,75.50
2023-03-04T00:09:58.741Z,75.87
2023-03-04T00:10:11.750Z,76.16
2023-03-04T00:10:23.662Z,75.62
2023-03-04T00:10:35.660Z,75.20
2023-03-04T00:10:47.634Z,75.19
2023-03-04T00:10:59.640Z,75.67
2023-03-04T00:11:11.630Z,75.62
2023-03-04T00:11:23.794Z,75.03
2023-03-04T00:11:36.603Z,75.15
2023-03-04T00:11:48.501Z,74.65
2023-03-04T00:12:00.680Z,75.07
2023-03-04T00:12:15.185Z,74.58
2023-03-04T00:12:29.118Z,74.44
2023-03-04T00:12:41.143Z,74.75
2023-03-04T00:12:53.081Z,74.47
2023-03-04T00:13:04.996Z,74.33
2023-03-04T00:13:16.929Z,74.44
2023-03-04T00:13:28.830Z,74.65
2023-03-04T00:13:40.774Z,73.90
2023-03-04T00:13:52.837Z,73.89
2023-03-04T00:14:04.747Z,73.74
2023-03-04T00:14:16.767Z,73.62
2023-03-04T00:14:30.437Z,74.29
2023-03-04T00:14:42.540Z,74.62
2023-03-04T00:14:54.542Z,74.75
2023-03-04T00:15:07.109Z,75.35
2023-03-04T00:15:19.022Z,74.61
2023-03-04T00:15:30.932Z,74.74
2023-03-04T00:15:42.840Z,75.62
2023-03-04T00:15:54.837Z,75.15
2023-03-04T00:16:07.153Z,75.06
2023-03-04T00:16:19.159Z,75.15
2023-03-04T00:16:31.146Z,75.08
2023-03-04T00:16:43.272Z,75.58
2023-03-04T00:16:55.282Z,75.53
2023-03-04T00:17:07.548Z,75.67
2023-03-04T00:17:19.654Z,76.13
2023-03-04T00:17:31.681Z,76.32
2023-03-04T00:17:44.828Z,76.97
2023-03-04T00:17:56.717Z,77.00
2023-03-04T00:18:08.726Z,77.31
2023-03-04T00:18:23.344Z,76.94
2023-03-04T00:18:35.340Z,77.03
2023-03-04T00:18:47.568Z,76.78
2023-03-04T00:18:59.548Z,76.76
2023-03-04T00:19:11.505Z,76.56
2023-03-04T00:19:23.520Z,76.80
2023-03-04T00:19:35.730Z,76.75
2023-03-04T00:19:47.774Z,76.14
2023-03-04T00:19:59.845Z,75.88
2023-03-04T00:20:12.935Z,75.52
2023-03-04T00:20:24.876Z,75.53
2023-03-04T00:20:36.815Z,75.31
2023-03-04T00:20:49.740Z,75.26
2023-03-04T00:21:01.826Z,75.65
2023-03-04T00:21:13.781Z,75.49
2023-03-04T00:21:25.781Z,74.73
2023-03-04T00:21:37.751Z,75.43
2023-03-04T00:21:49.714Z,74.94
2023-03-04T00:22:02.789Z,74.61
2023-03-04T00:22:14.710Z,75.31
2023-03-04T00:22:26.673Z,75.19
2023-03-04T00:22:38.620Z,75.28
2023-03-04T00:22:50.691Z,75.14
2023-03-04T00:23:02.686Z,75.12
2023-03-04T00:23:14.588Z,75.39
2023-03-04T00:23:26.581Z,74.96
2023-03-04T00:23:38.524Z,75.41
2023-03-04T00:23:50.960Z,75.30
2023-03-04T00:24:02.990Z,75.26
2023-03-04T00:24:14.982Z,74.78
2023-03-04T00:24:26.894Z,74.76
2023-03-04T00:24:39.095Z,75.23
2023-03-04T00:24:51.069Z,75.15
2023-03-04T00:25:03.259Z,75.24
2023-03-04T00:25:15.477Z,74.97
2023-03-04T00:25:27.447Z,74.92
2023-03-04T00:25:40.488Z,74.97
2023-03-04T00:25:53.915Z,74.89
2023-03-04T00:26:05.875Z,74.79
2023-03-04T00:26:18.070Z,74.01
2023-03-04T00:26:30.014Z,74.00
2023-03-04T00:26:41.927Z,74.16
2023-03-04T00:26:56.478Z,74.39
2023-03-04T00:27:08.486Z,74.12
2023-03-04T00:27:20.435Z,74.32
2023-03-04T00:27:32.473Z,74.46
2023-03-04T00:27:44.426Z,75.27
2023-03-04T00:27:58.205Z,75.18
2023-03-04T00:28:10.151Z,75.48
2023-03-04T00:28:22.231Z,75.73
2023-03-04T00:28:34.227Z,75.21
2023-03-04T00:28:46.393Z,75.74
2023-03-04T00:28:58.339Z,75.05
2023-03-04T00:29:10.303Z,75.55
2023-03-04T00:29:22.383Z,75.87
2023-03-04T00:29:34.321Z,75.50
2023-03-04T00:29:46.307Z,75.96
2023-03-04T00:29:58.432Z,75.86
2023-03-04T00:30:10.988Z,76.12
2023-03-04T00:30:22.970Z,76.25
2023-03-04T00:30:34.946Z,75.48
2023-03-04T00:30:46.902Z,76.47
2023-03-04T00:30:59.065Z,75.63
2023-03-04T00:31:11.901Z,76.54
2023-03-04T00:31:24.296Z,75.92
2023-03-04T00:31:36.423Z,75.56
2023-03-04T00:31:48.600Z,76.24
2023-03-04T00:32:00.630Z,76.07
2023-03-04T00:32:12.942Z,75.66
2023-03-04T00:32:24.938Z,75.03
2023-03-04T00:32:36.908Z,74.98
2023-03-04T00:32:48.902Z,75.06
2023-03-04T00:33:00.795Z,74.82
2023-03-04T00:33:12.735Z,74.63
2023-03-04T00:33:24.839Z,74.71
2023-03-04T00:33:37.419Z,74.40
2023-03-04T00:33:49.343Z,74.78
2023-03-04T00:34:01.251Z,74.43
2023-03-04T00:34:13.240Z,73.83
2023-03-04T00:34:25.180Z,74.49
2023-03-04T00:34:37.153Z,74.49
2023-03-04T00:34:49.187Z,74.30
2023-03-04T00:35:01.133Z,74.73
2023-03-04T00:35:13.106Z,74.42
2023-03-04T00:35:25.316Z,74.58
2023-03-04T00:35:37.324Z,74.04
2023-03-04T00:35:49.253Z,74.58
2023-03-04T00:36:02.430Z,74.44
2023-03-04T00:36:14.368Z,74.30
2023-03-04T00:36:26.370Z,74.57
2023-03-04T00:36:38.473Z,74.38
2023-03-04T00:36:50.568Z,74.24
2023-03-04T00:37:03.647Z,74.75
2023-03-04T00:37:15.615Z,74.03
2023-03-04T00:37:27.506Z,74.35
2023-03-04T00:37:39.393Z,74.70
2023-03-04T00:37:51.352Z,74.36
2023-03-04T00:38:03.541Z,74.05
2023-03-04T00:38:18.141Z,74.07
2023-03-04T00:38:30.419Z,74.46
2023-03-04T00:38:42.529Z,74.02
2023-03-04T00:38:54.534Z,73.50
2023-03-04T00:39:06.470Z,73.79
2023-03-04T00:39:18.501Z,74.09
2023-03-04T00:39:30.577Z,73.91
2023-03-04T00:39:42.532Z,73.77
2023-03-04T00:39:54.449Z,73.59
2023-03-04T00:40:06.848Z,73.82
2023-03-04T00:40:18.917Z,73.63
2023-03-04T00:40:30.875Z,73.78
2023-03-04T00:40:42.800Z,73.20
2023-03-04T00:40:54.707Z,73.32
2023-03-04T00:41:06.628Z,73.10
2023-03-04T00:41:18.573Z,73.69
2023-03-04T00:41:30.535Z,73.14
2023-03-04T00:41:42.686Z,73.05
2023-03-04T00:41:54.832Z,73.25
2023-03-04T00:42:06.877Z,73.03
2023-03-04T00:42:18.800Z,72.43
2023-03-04T00:42:30.692Z,73.00
2023-03-04T00:42:42.653Z,72.89
2023-03-04T00:42:54.619Z,73.17
2023-03-04T00:43:06.523Z,73.35
2023-03-04T00:43:18.661Z,72.94
2023-03-04T00:43:32.014Z,73.48
2023-03-04T00:43:43.960Z,73.22
2023-03-04T00:43:55.904Z,73.09
2023-03-04T00:44:07.997Z,73.32
2023-03-04T00:44:19.958Z,73.34
2023-03-04T00:44:31.912Z,73.30
2023-03-04T00:44:43.866Z,73.11
2023-03-04T00:44:55.759Z,73.37
2023-03-04T00:45:08.733Z,72.88
2023-03-04T00:45:20.703Z,73.66
2023-03-04T00:45:32.643Z,73.40
2023-03-04T00:45:44.632Z,72.77
2023-03-04T00:45:56.630Z,73.42
2023-03-04T00:46:08.668Z,72.74
2023-03-04T00:46:20.673Z,73.00
2023-03-04T00:46:32.617Z,73.37
2023-03-04T00:46:44.536Z,72.79
2023-03-04T00:46:59.552Z,72.82
2023-03-04T00:47:11.546Z,72.51
2023-03-04T00:47:23.522Z,72.98
2023-03-04T00:47:35.533Z,72.78
2023-03-04T00:47:47.437Z,72.64
2023-03-04T00:47:59.350Z,72.85
2023-03-04T00:48:11.518Z,72.96
2023-03-04T00:48:24.475Z,72.66
2023-03-04T00:48:36.538Z,72.98
2023-03-04T00:48:48.504Z,72.39
2023-03-04T00:49:00.524Z,73.16
2023-03-04T00:49:12.689Z,73.01
2023-03-04T00:49:24.781Z,72.80
2023-03-04T00:49:37.982Z,72.28
2023-03-04T00:49:50.083Z,72.88
2023-03-04T00:50:02.338Z,72.63
2023-03-04T00:50:14.528Z,72.96
2023-03-04T00:50:26.480Z,73.11
2023-03-04T00:50:38.608Z,73.06
2023-03-04T00:50:53.120Z,72.36
2023-03-04T00:51:05.575Z,73.04
2023-03-04T00:51:17.514Z,72.29
2023-03-04T00:51:29.484Z,72.55
2023-03-04T00:51:41.412Z,72.47
2023-03-04T00:51:53.365Z,73.00
2023-03-04T00:52:05.304Z,73.04
2023-03-04T00:52:17.449Z,72.40
2023-03-04T00:52:29.355Z,72.78
2023-03-04T00:52:41.521Z,72.32
2023-03-04T00:52:53.517Z,72.29
2023-03-04T00:53:05.655Z,72.11
2023-03-04T00:53:17.639Z,72.42
2023-03-04T00:53:29.570Z,72.43
2023-03-04T00:53:41.533Z,72.76
2023-03-04T00:53:53.507Z,72.42
2023-03-04T00:54:05.468Z,71.97
2023-03-04T00:54:18.809Z,72.63
2023-03-04T00:54:30.916Z,72.13
2023-03-04T00:54:42.921Z,72.65
2023-03-04T00:54:54.917Z,72.30
2023-03-04T00:55:07.958Z,72.65
2023-03-04T00:55:19.923Z,72.34
2023-03-04T00:55:31.874Z,72.49
2023-03-04T00:55:43.822Z,72.06
2023-03-04T00:55:55.957Z,72.70
2023-03-04T00:56:07.939Z,72.44
2023-03-04T00:56:19.870Z,72.04
2023-03-04T00:56:31.792Z,72.52
2023-03-04T00:56:43.742Z,72.38
2023-03-04T00:56:55.698Z,72.44
2023-03-04T00:57:07.613Z,71.95
2023-03-04T00:57:19.629Z,72.64
2023-03-04T00:57:31.560Z,72.62
2023-03-04T00:57:43.503Z,72.37
2023-03-04T00:57:55.401Z,72.49
2023-03-04T00:58:07.426Z,72.39
2023-03-04T00:58:19.372Z,72.67
2023-03-04T00:58:31.645Z,71.93
2023-03-04T00:58:43.609Z,72.05
2023-03-04T00:58:55.654Z,72.17
2023-03-04T00:59:07.590Z,72.47
2023-03-04T00:59:19.506Z,72.20
2023-03-04T00:59:31.454Z,72.37
2023-03-04T00:59:43.815Z,72.61
2023-03-04T00:59:55.718Z,71.90
2023-03-04T01:00:08.488Z,72.38
2023-03-04T01:00:21.026Z,72.09
2023-03-04T01:00:34.388Z,72.36
2023-03-04T01:00:46.294Z,72.33
2023-03-04T01:00:58.452Z,72.20
2023-03-04T01:01:10.466Z,72.15
2023-03-04T01:01:22.522Z,72.31
2023-03-04T01:01:34.565Z,72.32
2023-03-04T01:01:46.588Z,72.01
2023-03-04T01:01:58.538Z,72.18
2023-03-04T01:02:11.102Z,72.01
2023-03-04T01:02:23.193Z,72.20
2023-03-04T01:02:35.199Z,72.54
2023-03-04T01:02:47.652Z,72.25
2023-03-04T01:02:59.921Z,71.69
2023-03-04T01:03:11.855Z,71.74
2023-03-04T01:03:24.510Z,71.76
2023-03-04T01:03:36.702Z,72.08
2023-03-04T01:03:48.709Z,72.79
2023-03-04T01:04:00.716Z,72.34
2023-03-04T01:04:12.692Z,72.14
2023-03-04T01:04:24.716Z,72.35
2023-03-04T01:04:37.137Z,72.19
2023-03-04T01:04:49.079Z,72.34
2023-03-04T01:05:00.998Z,72.46
2023-03-04T01:05:13.126Z,71.82
2023-03-04T01:05:25.140Z,72.30
2023-03-04T01:05:37.149Z,71.92
2023-03-04T01:05:49.148Z,72.05
2023-03-04T01:06:01.125Z,72.75
2023-03-04T01:06:13.469Z,72.68
2023-03-04T01:06:25.508Z,72.52
2023-03-04T01:06:37.422Z,72.24
2023-03-04T01:06:49.430Z,72.69
2023-03-04T01:07:01.619Z,72.38
2023-03-04T01:07:13.591Z,72.57
2023-03-04T01:07:25.656Z,72.36
2023-03-04T01:07:37.617Z,72.76
2023-03-04T01:07:49.666Z,72.41
2023-03-04T01:08:02.211Z,72.64
2023-03-04T01:08:16.558Z,72.68
2023-03-04T01:08:28.692Z,72.50
2023-03-04T01:08:40.732Z,72.47
2023-03-04T01:08:52.731Z,72.25
2023-03-04T01:09:11.373Z,72.63
2023-03-04T01:09:23.350Z,72.09
2023-03-04T01:09:35.393Z,72.29
2023-03-04T01:09:47.449Z,72.31
2023-03-04T01:09:59.514Z,72.79
2023-03-04T01:10:13.712Z,72.88
2023-03-04T01:10:25.725Z,72.57
2023-03-04T01:10:37.884Z,72.74
2023-03-04T01:10:49.813Z,72.83
2023-03-04T01:11:01.746Z,72.18
2023-03-04T01:11:13.959Z,72.38
2023-03-04T01:11:26.022Z,72.75
2023-03-04T01:11:37.987Z,72.21
2023-03-04T01:11:50.030Z,72.32
2023-03-04T01:12:02.011Z,72.77
2023-03-04T01:12:13.939Z,72.85
2023-03-04T01:12:25.946Z,72.14
2023-03-04T01:12:38.083Z,72.35
2023-03-04T01:12:50.017Z,72.38
2023-03-04T01:13:01.982Z,72.31
2023-03-04T01:13:13.909Z,72.36
2023-03-04T01:13:25.924Z,71.85
2023-03-04T01:13:38.120Z,72.31
2023-03-04T01:13:50.045Z,72.04
2023-03-04T01:14:02.010Z,72.57
2023-03-04T01:14:13.971Z,72.17
2023-03-04T01:14:26.491Z,72.14
2023-03-04T01:14:38.452Z,72.26
2023-03-04T01:14:50.468Z,72.23
2023-03-04T01:15:03.146Z,72.81
2023-03-04T01:15:15.126Z,72.60
2023-03-04T01:15:27.788Z,72.38
2023-03-04T01:15:39.719Z,72.19
2023-03-04T01:15:51.708Z,72.42
2023-03-04T01:16:04.993Z,72.55
2023-03-04T01:16:16.984Z,72.08
2023-03-04T01:16:29.014Z,72.40
2023-03-04T01:16:40.984Z,71.97
2023-03-04T01:16:53.085Z,72.01
2023-03-04T01:17:05.071Z,72.64
2023-03-04T01:17:16.971Z,72.43
2023-03-04T01:17:28.908Z,72.57
2023-03-04T01:17:41.240Z,72.52
2023-03-04T01:17:53.309Z,72.81
2023-03-04T01:18:05.328Z,72.69
2023-03-04T01:18:17.276Z,72.83
2023-03-04T01:18:29.454Z,72.39
2023-03-04T01:18:41.780Z,72.95
2023-03-04T01:18:53.734Z,72.89
2023-03-04T01:19:05.663Z,73.10
2023-03-04T01:19:18.004Z,72.63
2023-03-04T01:19:29.965Z,72.91
2023-03-04T01:19:41.969Z,72.40
2023-03-04T01:19:53.904Z,72.92
2023-03-04T01:20:07.203Z,73.14
2023-03-04T01:20:19.290Z,73.14
2023-03-04T01:20:31.237Z,72.75
2023-03-04T01:20:43.192Z,73.21
2023-03-04T01:20:55.223Z,72.69
2023-03-04T01:21:07.168Z,72.35
2023-03-04T01:21:19.247Z,72.79
2023-03-04T01:21:31.142Z,73.16
2023-03-04T01:21:43.090Z,73.42
2023-03-04T01:21:54.994Z,72.72
2023-03-04T01:22:06.981Z,72.86
2023-03-04T01:22:19.060Z,73.21
2023-03-04T01:22:31.150Z,72.77
2023-03-04T01:22:46.294Z,72.75
2023-03-04T01:22:58.338Z,72.45
2023-03-04T01:23:10.362Z,72.92
2023-03-04T01:23:25.150Z,72.88
2023-03-04T01:23:37.076Z,72.97
2023-03-04T01:23:49.087Z,72.69
2023-03-04T01:24:01.076Z,72.77
2023-03-04T01:24:13.076Z,72.53
2023-03-04T01:24:25.072Z,72.50
2023-03-04T01:24:37.053Z,72.85
2023-03-04T01:24:48.986Z,72.26
2023-03-04T01:25:01.097Z,72.83
2023-03-04T01:25:13.093Z,72.77
2023-03-04T01:25:25.070Z,73.00
2023-03-04T01:25:37.067Z,72.88
2023-03-04T01:25:49.037Z,72.67
2023-03-04T01:26:01.012Z,72.68
2023-03-04T01:26:12.978Z,72.99
2023-03-04T01:26:24.931Z,73.07
2023-03-04T01:26:36.873Z,73.18
2023-03-04T01:26:48.795Z,72.95
2023-03-04T01:27:00.767Z,72.86
2023-03-04T01:27:12.736Z,72.56
2023-03-04T01:27:24.681Z,73.22
2023-03-04T01:27:36.659Z,72.60
2023-03-04T01:27:48.590Z,73.45
2023-03-04T01:28:00.606Z,72.75
2023-03-04T01:28:12.562Z,72.43
2023-03-04T01:28:24.565Z,73.33
2023-03-04T01:28:36.540Z,73.35
2023-03-04T01:28:48.556Z,72.82
2023-03-04T01:29:00.671Z,73.55
2023-03-04T01:29:12.648Z,73.12
2023-03-04T01:29:24.582Z,72.74
2023-03-04T01:29:36.487Z,73.54
2023-03-04T01:29:48.397Z,73.38
2023-03-04T01:30:00.352Z,73.01
2023-03-04T01:30:12.868Z,73.32
2023-03-04T01:30:26.034Z,73.39
2023-03-04T01:30:40.955Z,72.71
2023-03-04T01:30:52.889Z,72.83
2023-03-04T01:31:05.468Z,73.69
2023-03-04T01:31:17.444Z,73.60
2023-03-04T01:31:29.628Z,73.61
2023-03-04T01:31:41.529Z,73.99
2023-03-04T01:31:53.627Z,73.29
2023-03-04T01:32:05.743Z,73.45
2023-03-04T01:32:17.982Z,73.53
2023-03-04T01:32:30.132Z,73.97
2023-03-04T01:32:42.140Z,73.75
2023-03-04T01:32:54.112Z,73.79
2023-03-04T01:33:06.097Z,73.71
2023-03-04T01:33:18.023Z,73.38
2023-03-04T01:33:30.608Z,73.01
2023-03-04T01:33:42.505Z,73.28
2023-03-04T01:33:54.421Z,73.05
2023-03-04T01:34:06.394Z,72.83
2023-03-04T01:34:18.325Z,73.05
2023-03-04T01:34:30.415Z,72.68
2023-03-04T01:34:42.393Z,72.96
2023-03-04T01:34:54.352Z,72.96
2023-03-04T01:35:06.561Z,73.26
2023-03-04T01:35:18.520Z,73.00
2023-03-04T01:35:30.471Z,73.10
2023-03-04T01:35:42.561Z,72.75
2023-03-04T01:35:54.636Z,73.34
2023-03-04T01:36:06.822Z,73.18
2023-03-04T01:36:18.902Z,73.41
2023-03-04T01:36:33.319Z,73.49
2023-03-04T01:36:45.252Z,73.04
2023-03-04T01:36:57.450Z,73.41
2023-03-04T01:37:09.385Z,73.03
2023-03-04T01:37:21.338Z,73.77
2023-03-04T01:37:33.322Z,73.34
2023-03-04T01:37:47.933Z,73.31
2023-03-04T01:37:59.906Z,73.91
2023-03-04T01:38:12.846Z,73.83
2023-03-04T01:38:24.829Z,74.17
2023-03-04T01:38:36.768Z,73.90
2023-03-04T01:38:48.745Z,73.90
2023-03-04T01:39:00.722Z,73.90
2023-03-04T01:39:12.747Z,73.66
2023-03-04T01:39:24.787Z,73.65
2023-03-04T01:39:36.709Z,74.16
2023-03-04T01:39:48.597Z,74.21
2023-03-04T01:40:00.595Z,74.06
2023-03-04T01:40:16.866Z,74.49
2023-03-04T01:40:28.855Z,73.71
2023-03-04T01:40:40.854Z,73.69
2023-03-04T01:40:53.594Z,73.66
2023-03-04T01:41:07.333Z,73.71
2023-03-04T01:41:23.906Z,73.63
2023-03-04T01:41:35.911Z,74.33
2023-03-04T01:41:47.972Z,73.90
2023-03-04T01:41:59.942Z,73.30
2023-03-04T01:42:20.849Z,73.45
2023-03-04T01:42:35.806Z,73.74
2023-03-04T01:42:47.776Z,73.65
2023-03-04T01:42:59.838Z,73.41
2023-03-04T01:43:19.948Z,73.46
2023-03-04T01:43:32.268Z,74.09
2023-03-04T01:43:45.179Z,74.09
2023-03-04T01:44:00.835Z,73.33
2023-03-04T01:44:13.134Z,73.33
2023-03-04T01:44:25.232Z,74.17
2023-03-04T01:44:37.225Z,73.73
2023-03-04T01:44:51.088Z,74.01
2023-03-04T01:45:04.512Z,73.86
2023-03-04T01:45:19.348Z,73.88
2023-03-04T01:45:35.699Z,73.59
2023-03-04T01:45:50.218Z,73.02
2023-03-04T01:46:02.321Z,73.34
2023-03-04T01:46:17.680Z,73.29
2023-03-04T01:46:31.527Z,73.63
2023-03-04T01:46:48.681Z,73.20
2023-03-04T01:47:00.595Z,73.90
2023-03-04T01:47:12.781Z,73.60
2023-03-04T01:47:28.600Z,73.27
2023-03-04T01:47:40.665Z,73.75
2023-03-04T01:47:52.773Z,73.82
2023-03-04T01:48:04.968Z,73.66
2023-03-04T01:48:21.071Z,73.58
2023-03-04T01:48:37.818Z,73.35
2023-03-04T01:48:49.893Z,73.38
2023-03-04T01:49:01.922Z,73.13
2023-03-04T01:49:15.790Z,73.48
2023-03-04T01:49:27.730Z,73.24
2023-03-04T01:49:40.261Z,73.86
2023-03-04T01:49:55.813Z,73.22
2023-03-04T01:50:16.282Z,73.76
2023-03-04T01:50:34.003Z,73.53
2023-03-04T01:50:46.220Z,73.97
2023-03-04T01:50:59.516Z,73.41
2023-03-04T01:51:16.196Z,73.67
2023-03-04T01:51:28.314Z,73.61
2023-03-04T01:51:42.938Z,73.12
2023-03-04T01:51:54.980Z,73.51
2023-03-04T01:52:12.406Z,73.27
2023-03-04T01:52:25.899Z,73.53
2023-03-04T01:52:40.057Z,73.67
2023-03-04T01:52:52.041Z,73.88
2023-03-04T01:53:04.355Z,73.35
2023-03-04T01:53:30.094Z,73.60
2023-03-04T01:53:42.218Z,73.12
2023-03-04T01:53:54.916Z,73.13
2023-03-04T01:54:06.846Z,73.72
2023-03-04T01:54:19.851Z,72.69
2023-03-04T01:54:31.853Z,73.22
2023-03-04T01:54:43.779Z,73.21
2023-03-04T01:54:56.106Z,74.14
2023-03-04T01:55:21.849Z,73.76
2023-03-04T01:55:33.910Z,73.27
2023-03-04T01:55:45.858Z,74.28
2023-03-04T01:56:04.834Z,73.87
2023-03-04T01:56:23.911Z,74.27
2023-03-04T01:56:38.828Z,73.15
2023-03-04T01:56:52.134Z,73.30
2023-03-04T01:57:15.132Z,74.06
2023-03-04T01:57:36.219Z,74.25
2023-03-04T01:57:49.945Z,73.65
2023-03-04T01:58:01.915Z,74.09
2023-03-04T01:58:13.866Z,74.22
2023-03-04T01:58:30.180Z,74.35
2023-03-04T01:58:42.835Z,74.10
2023-03-04T01:59:21.923Z,73.62
2023-03-04T01:59:33.856Z,74.07
2023-03-04T01:59:47.029Z,74.27
2023-03-04T02:00:20.036Z,74.25
2023-03-04T02:00:34.001Z,73.50
2023-03-04T02:00:46.612Z,73.85
2023-03-04T02:00:59.314Z,74.01
2023-03-04T02:01:12.808Z,74.05
2023-03-04T02:01:24.812Z,73.70
2023-03-04T02:01:38.233Z,74.40
2023-03-04T02:01:55.620Z,74.48
2023-03-04T02:02:07.647Z,74.53
2023-03-04T02:02:19.586Z,74.08
2023-03-04T02:02:31.518Z,73.55
2023-03-04T02:02:43.601Z,73.76
2023-03-04T02:02:59.739Z,73.39
2023-03-04T02:03:15.274Z,73.39
2023-03-04T02:03:27.497Z,74.00
2023-03-04T02:03:40.389Z,74.38
2023-03-04T02:03:52.364Z,74.11
2023-03-04T02:04:04.834Z,74.17
2023-03-04T02:04:20.512Z,74.05
2023-03-04T02:04:34.390Z,74.47
2023-03-04T02:04:46.386Z,74.28
2023-03-04T02:04:58.342Z,74.51
2023-03-04T02:05:10.585Z,74.89
2023-03-04T02:05:23.496Z,74.53
2023-03-04T02:05:37.887Z,74.25
2023-03-04T02:05:51.969Z,73.87
2023-03-04T02:06:04.253Z,74.26
2023-03-04T02:06:16.229Z,75.17
2023-03-04T02:06:28.210Z,75.26
2023-03-04T02:06:42.047Z,75.03
2023-03-04T02:06:55.055Z,74.93
2023-03-04T02:07:33.638Z,74.81
2023-03-04T02:07:45.608Z,74.91
2023-03-04T02:07:59.622Z,74.57
2023-03-04T02:08:12.861Z,74.75
2023-03-04T02:08:25.031Z,74.75
2023-03-04T02:08:36.976Z,74.88
2023-03-04T02:08:48.983Z,75.49
2023-03-04T02:09:00.972Z,74.88
2023-03-04T02:09:13.964Z,74.94
2023-03-04T02:09:26.144Z,75.69
2023-03-04T02:09:38.226Z,75.14
2023-03-04T02:09:50.177Z,75.71
2023-03-04T02:10:02.321Z,75.31
2023-03-04T02:10:14.484Z,75.25
2023-03-04T02:10:27.936Z,75.86
2023-03-04T02:10:43.302Z,75.61
2023-03-04T02:10:55.333Z,75.45
2023-03-04T02:11:07.247Z,75.89
2023-03-04T02:11:19.296Z,75.35
2023-03-04T02:11:31.550Z,75.41
2023-03-04T02:11:48.978Z,75.67
2023-03-04T02:12:01.845Z,75.59
2023-03-04T02:12:13.770Z,75.94
2023-03-04T02:12:25.746Z,75.72
2023-03-04T02:12:38.216Z,75.87
2023-03-04T02:12:51.077Z,75.05
2023-03-04T02:13:03.558Z,75.06
2023-03-04T02:13:16.147Z,75.76
2023-03-04T02:13:28.223Z,75.68
2023-03-04T02:13:40.129Z,76.45
2023-03-04T02:13:52.641Z,76.21
2023-03-04T02:14:06.013Z,76.50
2023-03-04T02:14:19.242Z,77.10
2023-03-04T02:14:31.269Z,76.81
2023-03-04T02:14:43.229Z,77.20
2023-03-04T02:14:55.129Z,77.39
2023-03-04T02:15:08.231Z,77.09
2023-03-04T02:15:20.691Z,76.67
2023-03-04T02:15:35.324Z,76.65
2023-03-04T02:15:47.434Z,77.13
2023-03-04T02:15:59.454Z,77.94
2023-03-04T02:16:11.524Z,77.95
2023-03-04T02:16:23.861Z,77.60
2023-03-04T02:16:35.839Z,77.99
2023-03-04T02:16:48.928Z,77.88
2023-03-04T02:17:00.898Z,78.44
2023-03-04T02:17:13.392Z,78.56
2023-03-04T02:17:26.434Z,78.10
2023-03-04T02:17:38.488Z,78.57
2023-03-04T02:17:50.716Z,78.52
2023-03-04T02:18:05.446Z,78.15
2023-03-04T02:18:20.774Z,78.15
2023-03-04T02:18:32.737Z,77.92
2023-03-04T02:18:44.843Z,78.03
2023-03-04T02:18:56.831Z,78.04
2023-03-04T02:19:51.431Z,77.63
2023-03-04T02:20:43.610Z,76.55
2023-03-04T02:21:10.205Z,76.28
2023-03-04T02:21:29.559Z,76.47
2023-03-04T02:21:41.653Z,76.60
2023-03-04T02:21:53.687Z,76.38
2023-03-04T02:22:06.120Z,76.57
2023-03-04T02:22:18.131Z,76.45
2023-03-04T02:22:30.413Z,76.38
2023-03-04T02:22:54.153Z,76.42
2023-03-04T02:23:20.078Z,76.32
2023-03-04T02:23:43.450Z,76.39
2023-03-04T02:24:15.189Z,77.14
2023-03-04T02:24:30.699Z,76.81
2023-03-04T02:25:00.408Z,76.72
2023-03-04T02:25:20.988Z,76.05
2023-03-04T02:25:43.187Z,76.28
2023-03-04T02:26:14.496Z,76.53
2023-03-04T02:26:28.287Z,76.80
2023-03-04T02:26:43.416Z,77.10
2023-03-04T02:26:55.613Z,76.56
2023-03-04T02:27:07.900Z,76.30
2023-03-04T02:27:22.038Z,75.61
2023-03-04T02:27:34.106Z,75.45
2023-03-04T02:27:46.029Z,76.07
2023-03-04T02:27:57.969Z,75.35
2023-03-04T02:28:09.986Z,75.47
2023-03-04T02:28:22.039Z,76.27
2023-03-04T02:28:34.124Z,76.36
2023-03-04T02:28:48.688Z,76.21
2023-03-04T02:29:02.339Z,76.29
2023-03-04T02:29:16.525Z,77.16
2023-03-04T02:29:28.851Z,77.10
2023-03-04T02:29:40.925Z,77.04
2023-03-04T02:29:52.857Z,76.62
2023-03-04T02:30:05.778Z,77.18
2023-03-04T02:30:23.825Z,77.22
2023-03-04T02:30:36.005Z,76.05
2023-03-04T02:30:47.923Z,75.92
2023-03-04T02:30:59.992Z,75.55
2023-03-04T02:31:25.626Z,75.69
2023-03-04T02:31:38.779Z,75.84
2023-03-04T02:31:53.429Z,75.76
2023-03-04T02:32:05.494Z,75.00
2023-03-04T02:32:17.762Z,75.47
2023-03-04T02:32:29.742Z,75.58
2023-03-04T02:32:41.717Z,76.20
2023-03-04T02:32:53.956Z,76.10
2023-03-04T02:33:06.428Z,76.66
2023-03-04T02:33:19.428Z,77.02
2023-03-04T02:33:33.082Z,76.72
2023-03-04T02:33:45.003Z,76.47
2023-03-04T02:34:02.603Z,75.98
2023-03-04T02:34:17.994Z,76.38
2023-03-04T02:34:36.692Z,75.24
2023-03-04T02:34:50.678Z,75.52
2023-03-04T02:35:02.736Z,76.10
2023-03-04T02:35:17.954Z,75.77
2023-03-04T02:35:30.023Z,75.84
2023-03-04T02:35:42.091Z,75.91
2023-03-04T02:35:54.057Z,75.14
2023-03-04T02:36:06.533Z,75.68
2023-03-04T02:36:18.917Z,76.03
2023-03-04T02:36:32.421Z,76.64
2023-03-04T02:36:45.921Z,76.68
2023-03-04T02:36:58.972Z,76.60
2023-03-04T02:37:11.640Z,76.55
2023-03-04T02:37:23.542Z,76.88
2023-03-04T02:37:35.513Z,76.70
2023-03-04T02:37:47.459Z,76.75
2023-03-04T02:37:59.402Z,76.23
2023-03-04T02:38:12.323Z,76.12
2023-03-04T02:38:24.237Z,76.81
2023-03-04T02:38:36.206Z,76.69
2023-03-04T02:38:50.176Z,76.29
2023-03-04T02:39:11.583Z,76.59
2023-03-04T02:39:41.612Z,76.11
2023-03-04T02:39:53.599Z,75.74
2023-03-04T02:40:06.345Z,75.74
2023-03-04T02:40:31.064Z,75.82
2023-03-04T02:40:47.024Z,75.67
2023-03-04T02:40:59.296Z,74.84
2023-03-04T02:41:17.808Z,75.28
2023-03-04T02:41:30.957Z,74.67
2023-03-04T02:41:44.524Z,74.65
2023-03-04T02:41:57.005Z,74.73
2023-03-04T02:42:09.410Z,74.73
2023-03-04T02:42:21.370Z,75.19
2023-03-04T02:42:33.275Z,74.99
2023-03-04T02:42:45.859Z,74.94
2023-03-04T02:43:01.570Z,75.30
2023-03-04T02:43:14.098Z,75.34
2023-03-04T02:43:26.274Z,74.93
2023-03-04T02:43:38.213Z,75.44
2023-03-04T02:43:53.015Z,75.10
2023-03-04T02:44:17.115Z,75.85
2023-03-04T02:44:32.032Z,76.05
2023-03-04T02:44:48.195Z,75.71
2023-03-04T02:45:01.201Z,75.79
2023-03-04T02:45:38.113Z,75.52
2023-03-04T02:45:51.050Z,75.55
2023-03-04T02:46:03.013Z,75.40
2023-03-04T02:46:14.985Z,75.71
2023-03-04T02:46:26.944Z,76.12
2023-03-04T02:46:38.968Z,76.06
2023-03-04T02:46:52.324Z,75.29
2023-03-04T02:47:07.233Z,75.15
2023-03-04T02:47:19.345Z,75.88
2023-03-04T02:47:31.240Z,75.73
2023-03-04T02:47:43.120Z,75.67
2023-03-04T02:47:55.063Z,76.50
2023-03-04T02:48:10.331Z,76.19
2023-03-04T02:48:24.010Z,76.32